Time;durP1;ratioP1;P1;durP2;ratioP2;P2;SDS_P1;SDS_P2;PMS_P1;PMS_P2;Temp;Humidity;BMP_temperature;BMP_pressure;BME280_temperature;BME280_humidity;BME280_pressure;Samples;Min_cycle;Max_cycle;Signal;HPM_P1;HPM_P2
2023/07/04 00:00:13;;;;;;;3.83;1.90;;;23.90;45.80;;;;;;4999563;28;20469;-75
2023/07/04 00:02:41;;;;;;;4.50;2.43;;;23.90;45.70;;;;;;4995228;28;20468;-74
2023/07/04 00:05:10;;;;;;;1.83;1.73;;;23.90;45.60;;;;;;4984384;28;20476;-75
2023/07/04 00:07:41;;;;;;;3.07;2.13;;;23.80;45.80;;;;;;4984584;28;20477;-74
2023/07/04 00:10:10;;;;;;;2.73;2.03;;;23.90;46.00;;;;;;4996183;28;20456;-75
2023/07/04 00:12:38;;;;;;;2.53;1.87;;;23.90;46.10;;;;;;4996488;28;20512;-75
2023/07/04 00:15:10;;;;;;;2.07;1.97;;;23.90;45.70;;;;;;4976930;28;20465;-74
2023/07/04 00:17:38;;;;;;;3.23;2.00;;;23.80;45.80;;;;;;4992796;28;20576;-74
2023/07/04 00:20:08;;;;;;;3.27;2.53;;;23.90;46.00;;;;;;4976618;28;20449;-75
2023/07/04 00:22:38;;;;;;;5.53;4.93;;;23.90;46.10;;;;;;4984149;28;20508;-75
2023/07/04 00:25:09;;;;;;;3.40;3.10;;;23.90;45.80;;;;;;4996074;28;20993;-75
2023/07/04 00:27:40;;;;;;;7.50;3.77;;;23.80;46.00;;;;;;4996110;28;20518;-74
2023/07/04 00:30:10;;;;;;;5.53;3.73;;;23.80;45.90;;;;;;4995929;28;20520;-74
2023/07/04 00:32:38;;;;;;;5.57;4.80;;;23.80;45.80;;;;;;4996176;28;20453;-74
2023/07/04 00:35:06;;;;;;;8.60;4.30;;;23.80;46.20;;;;;;4988164;28;20459;-74
2023/07/04 00:37:36;;;;;;;5.10;4.40;;;23.80;46.00;;;;;;4990091;28;20576;-75
2023/07/04 00:40:11;;;;;;;7.90;5.63;;;23.80;46.10;;;;;;4984562;28;20533;-75
2023/07/04 00:42:41;;;;;;;6.30;5.00;;;23.80;46.20;;;;;;4992139;28;20441;-75
2023/07/04 00:45:19;;;;;;;6.97;5.00;;;23.80;46.20;;;;;;4995953;28;20517;-74
2023/07/04 00:47:53;;;;;;;8.40;5.20;;;23.80;46.00;;;;;;4995676;28;20445;-74
2023/07/04 00:50:23;;;;;;;6.57;5.30;;;23.80;46.00;;;;;;4982377;28;20449;-75
2023/07/04 00:52:51;;;;;;;7.17;5.30;;;23.70;46.30;;;;;;4976559;28;20422;-74
2023/07/04 00:55:20;;;;;;;7.80;5.87;;;23.70;46.40;;;;;;4984518;28;20509;-75
2023/07/04 00:57:48;;;;;;;8.70;6.37;;;23.70;46.00;;;;;;4995649;28;20556;-74
2023/07/04 01:00:19;;;;;;;9.07;6.10;;;23.70;46.20;;;;;;4995816;28;20532;-75
2023/07/04 01:02:49;;;;;;;7.47;5.77;;;23.70;46.30;;;;;;4995443;28;20449;-74
2023/07/04 01:05:19;;;;;;;6.97;5.60;;;23.70;46.20;;;;;;4995563;28;20494;-74
2023/07/04 01:07:50;;;;;;;9.60;6.47;;;23.70;46.20;;;;;;4995864;28;20544;-74
2023/07/04 01:10:21;;;;;;;7.37;6.30;;;23.70;46.20;;;;;;4995537;28;20433;-74
2023/07/04 01:12:49;;;;;;;10.00;6.87;;;23.70;46.30;;;;;;4977279;28;20482;-75
2023/07/04 01:15:17;;;;;;;9.40;6.30;;;23.70;46.20;;;;;;4983991;28;20587;-74
2023/07/04 01:17:45;;;;;;;6.33;5.53;;;23.70;46.30;;;;;;4983653;28;20515;-75
2023/07/04 01:20:15;;;;;;;9.40;6.90;;;23.70;46.60;;;;;;4975660;28;20442;-75
2023/07/04 01:22:49;;;;;;;6.83;6.00;;;23.70;46.20;;;;;;4975966;28;20474;-73
2023/07/04 01:25:24;;;;;;;8.03;6.00;;;23.70;46.50;;;;;;4980070;28;20895;-74
2023/07/04 01:27:59;;;;;;;7.80;6.47;;;23.70;46.40;;;;;;4989789;28;20449;-75
2023/07/04 01:30:28;;;;;;;9.40;6.70;;;23.70;46.20;;;;;;4995275;28;20430;-75
2023/07/04 01:32:56;;;;;;;8.97;6.30;;;23.60;46.40;;;;;;4994778;28;20992;-75
2023/07/04 01:35:25;;;;;;;7.93;6.70;;;23.60;46.20;;;;;;4995183;28;20536;-75
2023/07/04 01:37:53;;;;;;;9.67;5.90;;;23.60;46.60;;;;;;4994689;28;20508;-74
2023/07/04 01:40:21;;;;;;;7.50;6.30;;;23.60;46.50;;;;;;4995546;28;20457;-74
2023/07/04 01:42:50;;;;;;;6.83;6.13;;;23.60;46.30;;;;;;4986147;28;20489;-75
2023/07/04 01:45:19;;;;;;;8.83;6.67;;;23.60;46.40;;;;;;4983820;28;20481;-75
2023/07/04 01:47:48;;;;;;;7.57;6.77;;;23.50;46.70;;;;;;4986066;28;20532;-75
2023/07/04 01:50:16;;;;;;;8.63;6.90;;;23.50;46.50;;;;;;4986558;28;20720;-75
2023/07/04 01:52:44;;;;;;;8.27;6.87;;;23.50;46.60;;;;;;4994175;28;20466;-76
2023/07/04 01:55:12;;;;;;;7.23;6.50;;;23.50;46.50;;;;;;4986685;28;20489;-74
2023/07/04 01:57:40;;;;;;;9.70;6.27;;;23.50;46.70;;;;;;4986159;28;20568;-76
2023/07/04 02:00:09;;;;;;;8.10;5.70;;;23.40;46.50;;;;;;4992936;28;20545;-75
2023/07/04 02:02:39;;;;;;;8.20;5.83;;;23.40;46.60;;;;;;4994746;28;20453;-75
2023/07/04 02:05:07;;;;;;;8.60;6.17;;;23.40;46.60;;;;;;4986493;28;20519;-74
2023/07/04 02:07:35;;;;;;;7.67;6.20;;;23.40;46.50;;;;;;4994631;28;20529;-75
2023/07/04 02:10:04;;;;;;;6.60;5.87;;;23.30;46.80;;;;;;4994386;28;20442;-75
2023/07/04 02:12:31;;;;;;;8.03;6.27;;;23.30;46.90;;;;;;4994429;28;20525;-74
2023/07/04 02:15:00;;;;;;;8.40;6.37;;;23.40;46.70;;;;;;4994154;28;20496;-74
2023/07/04 02:17:28;;;;;;;9.00;6.70;;;23.30;46.80;;;;;;4994229;28;20572;-75
2023/07/04 02:19:58;;;;;;;7.83;6.30;;;23.40;47.00;;;;;;4988580;28;20468;-75
2023/07/04 02:22:26;;;;;;;7.23;6.03;;;23.40;46.70;;;;;;4994225;28;20461;-75
2023/07/04 02:24:53;;;;;;;7.57;5.97;;;23.30;46.70;;;;;;4993980;28;20509;-75
2023/07/04 02:27:21;;;;;;;7.60;6.20;;;23.30;46.90;;;;;;4994313;28;20438;-74
2023/07/04 02:29:49;;;;;;;9.37;6.80;;;23.30;46.90;;;;;;4993954;28;20445;-74
2023/07/04 02:32:17;;;;;;;11.43;6.00;;;23.20;46.90;;;;;;4985966;28;20441;-74
2023/07/04 02:34:45;;;;;;;7.60;5.63;;;23.20;47.00;;;;;;4993998;28;20497;-74
2023/07/04 02:37:14;;;;;;;6.80;5.43;;;23.30;47.00;;;;;;4991326;28;20462;-75
2023/07/04 02:39:42;;;;;;;7.93;5.70;;;23.20;46.80;;;;;;4994310;28;20484;-75
2023/07/04 02:42:10;;;;;;;6.80;5.90;;;23.20;47.00;;;;;;4993468;28;20946;-74
2023/07/04 02:44:38;;;;;;;5.90;5.30;;;23.20;47.10;;;;;;4993229;28;20500;-75
2023/07/04 02:47:06;;;;;;;7.23;5.67;;;23.10;47.10;;;;;;4993686;28;20464;-75
2023/07/04 02:49:35;;;;;;;7.17;5.30;;;23.10;47.00;;;;;;4989582;28;20464;-75
2023/07/04 02:52:04;;;;;;;7.83;5.50;;;23.10;47.00;;;;;;5003590;28;20464;-75
2023/07/04 02:54:34;;;;;;;6.20;5.50;;;23.10;46.90;;;;;;4991648;28;20511;-75
2023/07/04 02:57:01;;;;;;;6.50;5.70;;;23.10;47.30;;;;;;4997550;28;20898;-75
2023/07/04 02:59:30;;;;;;;6.70;5.60;;;23.10;47.20;;;;;;4998915;28;20481;-75
2023/07/04 03:01:58;;;;;;;9.20;5.73;;;23.00;47.20;;;;;;4993423;28;20434;-75
2023/07/04 03:04:26;;;;;;;6.70;5.67;;;23.10;47.20;;;;;;5001574;28;20433;-75
2023/07/04 03:06:53;;;;;;;7.13;5.60;;;23.00;47.20;;;;;;5001566;28;20445;-75
2023/07/04 03:09:21;;;;;;;7.30;5.67;;;23.00;47.20;;;;;;5006088;28;20518;-76
2023/07/04 03:11:50;;;;;;;7.30;5.50;;;23.00;47.30;;;;;;4993693;28;20569;-75
2023/07/04 03:14:18;;;;;;;5.93;5.10;;;23.00;47.10;;;;;;4987878;28;20536;-75
2023/07/04 03:16:46;;;;;;;6.50;5.10;;;23.00;47.30;;;;;;5000936;28;20536;-75
2023/07/04 03:19:14;;;;;;;6.53;5.07;;;23.00;47.30;;;;;;5005088;28;20483;-75
2023/07/04 03:21:42;;;;;;;7.77;5.33;;;23.00;47.30;;;;;;5004581;28;20460;-76
2023/07/04 03:24:10;;;;;;;8.30;5.20;;;23.00;47.40;;;;;;5001910;28;20454;-74
2023/07/04 03:26:38;;;;;;;5.30;4.60;;;23.00;47.50;;;;;;4996426;28;20433;-75
2023/07/04 03:29:07;;;;;;;5.90;5.13;;;23.00;47.40;;;;;;4992965;28;20496;-74
2023/07/04 03:31:35;;;;;;;5.93;4.83;;;23.00;47.40;;;;;;4983412;28;20454;-75
2023/07/04 03:34:04;;;;;;;5.20;4.33;;;23.00;47.50;;;;;;4992793;28;20432;-75
2023/07/04 03:36:31;;;;;;;6.07;4.50;;;23.00;47.30;;;;;;4997566;28;20543;-75
2023/07/04 03:38:59;;;;;;;5.07;4.57;;;23.00;47.40;;;;;;4995142;28;20568;-76
2023/07/04 03:41:27;;;;;;;6.97;5.00;;;23.00;47.30;;;;;;4992658;28;20534;-75
2023/07/04 03:43:55;;;;;;;4.77;4.27;;;23.00;47.30;;;;;;4992579;28;21010;-75
2023/07/04 03:46:24;;;;;;;6.03;4.77;;;22.90;47.40;;;;;;4992617;28;20485;-75
2023/07/04 03:48:52;;;;;;;4.87;4.33;;;22.90;47.30;;;;;;4988929;28;20457;-75
2023/07/04 03:51:20;;;;;;;5.53;4.50;;;22.90;47.40;;;;;;4973571;28;20492;-75
2023/07/04 03:53:48;;;;;;;6.03;4.30;;;23.00;47.80;;;;;;4991378;28;20488;-75
2023/07/04 03:56:16;;;;;;;4.70;4.20;;;23.00;47.60;;;;;;4996223;28;20968;-76
2023/07/04 03:58:44;;;;;;;6.70;5.30;;;23.00;47.50;;;;;;4996587;28;20469;-75
2023/07/04 04:01:12;;;;;;;9.23;5.03;;;23.00;47.50;;;;;;4992359;28;20518;-75
2023/07/04 04:03:41;;;;;;;7.33;5.00;;;23.00;47.50;;;;;;4992673;28;20475;-76
2023/07/04 04:06:10;;;;;;;7.27;4.63;;;23.00;47.40;;;;;;4985481;28;20475;-76
2023/07/04 04:08:38;;;;;;;6.30;4.30;;;23.00;47.70;;;;;;4992870;28;20533;-75
2023/07/04 04:11:06;;;;;;;6.93;4.93;;;23.00;47.50;;;;;;5000643;28;20436;-75
2023/07/04 04:13:34;;;;;;;7.43;4.80;;;23.00;47.50;;;;;;4992535;28;20488;-75
2023/07/04 04:16:02;;;;;;;5.20;4.40;;;23.00;47.50;;;;;;4999574;28;20484;-75
2023/07/04 04:18:30;;;;;;;4.77;4.20;;;23.00;47.70;;;;;;4992211;28;20527;-75
2023/07/04 04:21:00;;;;;;;8.50;5.07;;;23.00;47.50;;;;;;4979684;28;20482;-75
2023/07/04 04:23:28;;;;;;;5.40;4.40;;;23.00;47.40;;;;;;4992198;28;20468;-76
2023/07/04 04:25:57;;;;;;;6.50;5.10;;;23.00;47.40;;;;;;5003375;28;20480;-75
2023/07/04 04:28:26;;;;;;;6.27;4.50;;;23.00;47.60;;;;;;4992308;28;20408;-75
2023/07/04 04:30:54;;;;;;;6.33;4.17;;;23.10;47.70;;;;;;4991839;28;20956;-75
2023/07/04 04:33:23;;;;;;;5.30;4.50;;;23.10;47.70;;;;;;4977261;28;20437;-76
2023/07/04 04:35:51;;;;;;;5.00;4.03;;;23.10;47.60;;;;;;4999004;28;20457;-75
2023/07/04 04:38:20;;;;;;;6.10;3.67;;;23.10;47.70;;;;;;4991750;28;20571;-75
2023/07/04 04:40:48;;;;;;;3.83;3.47;;;23.10;47.60;;;;;;4992382;28;20437;-75
2023/07/04 04:43:16;;;;;;;5.20;4.13;;;23.10;47.70;;;;;;4991740;28;20449;-75
2023/07/04 04:45:45;;;;;;;6.63;4.43;;;23.20;47.80;;;;;;4996788;28;20492;-75
2023/07/04 04:48:28;;;;;;;5.77;3.70;;;23.20;47.60;;;;;;5000614;28;20503;-75
2023/07/04 04:50:57;;;;;;;3.67;3.27;;;23.20;47.80;;;;;;4996042;28;20425;-76
2023/07/04 04:53:26;;;;;;;3.90;3.50;;;23.20;47.90;;;;;;4995913;28;20472;-75
2023/07/04 04:55:54;;;;;;;10.23;3.60;;;23.20;47.60;;;;;;4995843;28;20491;-75
2023/07/04 04:58:22;;;;;;;5.60;3.93;;;23.20;47.80;;;;;;4995962;28;20433;-75
2023/07/04 05:00:51;;;;;;;5.33;3.70;;;23.30;47.80;;;;;;4993686;28;20481;-76
2023/07/04 05:03:19;;;;;;;6.07;3.73;;;23.30;47.80;;;;;;4987978;28;20865;-75
2023/07/04 05:05:47;;;;;;;4.63;3.50;;;23.30;47.80;;;;;;4995560;28;20461;-75
2023/07/04 05:08:15;;;;;;;5.40;3.67;;;23.30;47.50;;;;;;4995439;28;20443;-74
2023/07/04 05:10:44;;;;;;;7.77;3.40;;;23.30;47.70;;;;;;4995368;28;20791;-76
2023/07/04 05:13:12;;;;;;;4.83;3.37;;;23.30;47.80;;;;;;4981811;28;20529;-74
2023/07/04 05:15:40;;;;;;;5.80;3.23;;;23.30;47.80;;;;;;5009778;28;20460;-75
2023/07/04 05:18:08;;;;;;;5.70;3.50;;;23.30;47.80;;;;;;5005234;28;20473;-75
2023/07/04 05:20:35;;;;;;;6.77;3.57;;;23.30;48.00;;;;;;4977174;28;20482;-74
2023/07/04 05:23:03;;;;;;;6.03;3.10;;;23.30;47.90;;;;;;4990572;28;20910;-75
2023/07/04 05:25:31;;;;;;;4.20;3.40;;;23.40;47.80;;;;;;5005707;28;20552;-76
2023/07/04 05:28:00;;;;;;;5.10;3.53;;;23.40;48.00;;;;;;5006767;28;20532;-76
2023/07/04 05:30:28;;;;;;;3.77;2.77;;;23.30;47.80;;;;;;5002052;28;20879;-76
2023/07/04 05:32:56;;;;;;;3.97;2.90;;;23.40;47.90;;;;;;4995179;28;20484;-75
2023/07/04 05:35:24;;;;;;;4.80;3.23;;;23.40;47.70;;;;;;4995411;28;20476;-75
2023/07/04 05:37:52;;;;;;;6.10;3.27;;;23.40;48.00;;;;;;4977734;28;20464;-75
2023/07/04 05:40:20;;;;;;;3.23;2.90;;;23.50;47.80;;;;;;4986680;28;20469;-76
2023/07/04 05:42:48;;;;;;;5.47;2.90;;;23.50;47.90;;;;;;4995952;28;20433;-75
2023/07/04 05:45:17;;;;;;;3.50;3.20;;;23.50;47.60;;;;;;4994603;28;20472;-75
2023/07/04 05:47:45;;;;;;;3.37;2.80;;;23.50;47.80;;;;;;5002720;28;20472;-75
2023/07/04 05:50:13;;;;;;;3.87;2.87;;;23.50;47.60;;;;;;4988279;28;20441;-75
2023/07/04 05:52:41;;;;;;;4.00;3.03;;;23.60;47.80;;;;;;4988705;28;20446;-75
2023/07/04 05:55:09;;;;;;;3.83;2.90;;;23.60;47.80;;;;;;4996712;28;20502;-75
2023/07/04 05:57:37;;;;;;;3.93;2.90;;;23.60;47.70;;;;;;5000473;28;20460;-75
2023/07/04 06:00:09;;;;;;;4.53;3.27;;;23.70;48.00;;;;;;4995831;28;20478;-75
2023/07/04 06:02:39;;;;;;;4.93;3.00;;;23.70;47.80;;;;;;4994741;28;20412;-76
2023/07/04 06:05:08;;;;;;;6.80;3.37;;;23.70;47.90;;;;;;4994460;28;20461;-75
2023/07/04 06:07:36;;;;;;;3.17;2.73;;;23.80;47.90;;;;;;4994483;28;20508;-75
2023/07/04 06:10:04;;;;;;;4.90;2.93;;;23.80;47.80;;;;;;4994358;28;20476;-75
2023/07/04 06:12:33;;;;;;;3.00;2.70;;;23.80;47.90;;;;;;4991075;28;20485;-75
2023/07/04 06:15:00;;;;;;;3.73;2.90;;;23.80;47.70;;;;;;5002331;28;20477;-75
2023/07/04 06:17:28;;;;;;;6.67;2.80;;;23.80;47.70;;;;;;4990144;28;20450;-75
2023/07/04 06:19:58;;;;;;;3.83;3.03;;;23.90;48.00;;;;;;4990447;28;20481;-74
2023/07/04 06:22:27;;;;;;;3.67;2.40;;;23.90;47.80;;;;;;4990888;28;20520;-76
2023/07/04 06:24:54;;;;;;;4.20;2.97;;;23.90;47.70;;;;;;4994009;28;20491;-75
2023/07/04 06:27:24;;;;;;;4.70;2.97;;;24.00;48.00;;;;;;4999638;28;20437;-76
2023/07/04 06:29:54;;;;;;;5.57;2.97;;;24.00;47.90;;;;;;5007393;28;20449;-75
2023/07/04 06:32:22;;;;;;;3.80;3.10;;;24.10;47.90;;;;;;4974771;28;20430;-75
2023/07/04 06:34:50;;;;;;;5.23;3.00;;;24.20;47.70;;;;;;4989713;28;20469;-76
2023/07/04 06:37:20;;;;;;;4.77;3.00;;;24.10;47.60;;;;;;4994013;28;20524;-76
2023/07/04 06:39:48;;;;;;;3.70;3.33;;;24.20;47.60;;;;;;4998845;28;20471;-75
2023/07/04 06:42:16;;;;;;;3.90;3.30;;;24.20;47.90;;;;;;4994555;28;20540;-76
2023/07/04 06:44:45;;;;;;;4.20;3.13;;;24.30;47.60;;;;;;4982972;28;20459;-76
2023/07/04 06:47:13;;;;;;;4.33;3.40;;;24.30;47.60;;;;;;4989561;28;20466;-75
2023/07/04 06:49:41;;;;;;;4.47;2.97;;;24.40;47.60;;;;;;4981144;28;20540;-76
2023/07/04 06:52:09;;;;;;;3.00;2.80;;;24.50;47.60;;;;;;4992386;28;20481;-75
2023/07/04 06:54:39;;;;;;;3.40;3.10;;;24.40;47.60;;;;;;4987229;28;20548;-75
2023/07/04 06:57:08;;;;;;;7.07;3.37;;;24.40;47.50;;;;;;4982025;28;20447;-76
2023/07/04 06:59:36;;;;;;;4.43;3.60;;;24.50;47.60;;;;;;4978163;28;20465;-75
2023/07/04 07:02:04;;;;;;;4.67;3.00;;;24.50;47.80;;;;;;4982324;28;20518;-75
2023/07/04 07:04:33;;;;;;;5.10;3.30;;;24.50;47.80;;;;;;4977499;28;20516;-75
2023/07/04 07:07:01;;;;;;;3.73;3.27;;;24.50;47.70;;;;;;4983867;28;20451;-75
2023/07/04 07:09:30;;;;;;;5.60;3.07;;;24.50;47.80;;;;;;4978679;28;20462;-75
2023/07/04 07:11:59;;;;;;;4.83;2.97;;;24.60;47.80;;;;;;4977892;28;20442;-76
2023/07/04 07:14:29;;;;;;;3.37;3.17;;;24.60;47.70;;;;;;4973150;28;20505;-75
2023/07/04 07:16:57;;;;;;;8.40;3.53;;;24.60;47.60;;;;;;4980441;28;20434;-75
2023/07/04 07:19:26;;;;;;;6.60;3.13;;;24.70;47.80;;;;;;4981516;28;20442;-75
2023/07/04 07:21:53;;;;;;;4.30;2.97;;;24.80;47.90;;;;;;4983885;28;20493;-75
2023/07/04 07:24:21;;;;;;;2.97;2.50;;;24.80;47.90;;;;;;4980947;28;20484;-75
2023/07/04 07:26:49;;;;;;;3.90;2.90;;;24.80;47.80;;;;;;4981817;28;20509;-76
2023/07/04 07:29:18;;;;;;;3.30;3.00;;;24.80;47.90;;;;;;4988171;28;20815;-75
2023/07/04 07:31:47;;;;;;;3.40;2.90;;;24.90;47.90;;;;;;4984496;28;20429;-75
2023/07/04 07:34:16;;;;;;;3.40;3.10;;;25.00;48.00;;;;;;4984302;28;20433;-75
2023/07/04 07:36:45;;;;;;;2.93;2.57;;;25.10;47.90;;;;;;4981834;28;20546;-75
2023/07/04 07:39:14;;;;;;;4.07;3.33;;;25.20;47.90;;;;;;4987410;28;20500;-75
2023/07/04 07:41:43;;;;;;;3.90;2.90;;;25.20;47.80;;;;;;4992847;28;20556;-75
2023/07/04 07:44:13;;;;;;;3.67;3.27;;;25.20;47.90;;;;;;4992819;28;20472;-76
2023/07/04 07:46:43;;;;;;;2.13;1.50;;;25.20;48.00;;;;;;4991290;28;20536;-76
2023/07/04 07:49:11;;;;;;;5.73;1.53;;;23.30;51.60;;;;;;4981879;28;20454;-76
2023/07/04 07:51:41;;;;;;;5.87;2.30;;;22.50;55.20;;;;;;4980688;28;20450;-76
2023/07/04 07:54:10;;;;;;;4.60;1.87;;;21.80;56.40;;;;;;4984429;28;20454;-75
2023/07/04 07:56:39;;;;;;;16.87;2.27;;;21.60;55.80;;;;;;4986711;28;20449;-76
2023/07/04 07:59:07;;;;;;;4.37;1.87;;;20.90;56.40;;;;;;4984074;28;20797;-75
2023/07/04 08:01:35;;;;;;;4.60;1.90;;;20.80;57.70;;;;;;4986791;28;20572;-75
2023/07/04 08:04:05;;;;;;;9.70;1.60;;;20.20;58.60;;;;;;4981547;28;20533;-75
2023/07/04 08:06:35;;;;;;;3.07;1.53;;;19.60;59.70;;;;;;4981699;28;20556;-75
2023/07/04 08:09:04;;;;;;;5.83;1.93;;;19.40;60.50;;;;;;4983535;28;20458;-75
2023/07/04 08:11:32;;;;;;;3.83;2.10;;;19.40;59.60;;;;;;4982144;28;20430;-75
2023/07/04 08:14:00;;;;;;;2.10;1.90;;;19.70;60.30;;;;;;4984385;28;20462;-75
2023/07/04 08:16:29;;;;;;;7.30;1.60;;;19.80;60.40;;;;;;4977038;28;20473;-75
2023/07/04 08:18:58;;;;;;;7.53;2.30;;;19.90;59.70;;;;;;4981987;28;20461;-75
2023/07/04 08:21:29;;;;;;;4.70;1.70;;;19.50;60.40;;;;;;4982881;28;20465;-75
2023/07/04 08:23:58;;;;;;;3.93;1.63;;;19.50;60.40;;;;;;4988716;28;20433;-74
2023/07/04 08:26:26;;;;;;;3.13;1.77;;;19.50;61.50;;;;;;4987965;28;20535;-75
2023/07/04 08:28:55;;;;;;;3.87;1.97;;;19.60;60.80;;;;;;4984508;28;20485;-75
2023/07/04 08:31:22;;;;;;;5.03;1.60;;;19.60;60.20;;;;;;4989557;28;20476;-75
2023/07/04 08:33:51;;;;;;;6.63;2.30;;;20.10;60.10;;;;;;4995135;28;20492;-75
2023/07/04 08:36:19;;;;;;;9.30;2.33;;;20.40;58.70;;;;;;4992116;28;20492;-76
2023/07/04 08:38:49;;;;;;;3.53;1.63;;;20.10;58.40;;;;;;4996368;28;20487;-76
2023/07/04 08:41:26;;;;;;;6.10;2.10;;;19.90;57.60;;;;;;4990033;28;20496;-76
2023/07/04 08:43:57;;;;;;;9.67;1.73;;;20.10;58.20;;;;;;4997209;28;20523;-75
2023/07/04 08:46:25;;;;;;;13.57;3.20;;;20.00;57.70;;;;;;4995577;28;20480;-75
2023/07/04 08:48:53;;;;;;;5.13;1.57;;;20.00;58.30;;;;;;4997254;28;20456;-75
2023/07/04 08:51:23;;;;;;;4.90;1.73;;;19.70;56.20;;;;;;4994709;28;20445;-76
2023/07/04 08:53:54;;;;;;;2.60;1.40;;;20.90;58.40;;;;;;4995171;28;20473;-78
2023/07/04 08:56:31;;;;;;;7.17;1.37;;;22.20;55.60;;;;;;4995079;28;20512;-76
2023/07/04 08:59:05;;;;;;;2.57;1.33;;;23.10;53.20;;;;;;4992129;28;20476;-76
2023/07/04 09:01:35;;;;;;;8.30;1.53;;;24.00;51.70;;;;;;4988470;28;20460;-78
2023/07/04 09:04:04;;;;;;;3.10;1.10;;;24.60;50.10;;;;;;4984692;28;20476;-77
2023/07/04 09:06:36;;;;;;;2.10;1.60;;;25.10;49.10;;;;;;4992349;28;20462;-77
2023/07/04 09:09:08;;;;;;;1.77;1.40;;;25.60;48.20;;;;;;5000320;28;20436;-77
2023/07/04 09:11:37;;;;;;;2.13;1.50;;;25.90;47.40;;;;;;4985642;28;20420;-77
2023/07/04 09:14:08;;;;;;;3.70;1.30;;;26.10;46.90;;;;;;4993089;28;20449;-77
2023/07/04 09:16:37;;;;;;;3.43;1.20;;;26.30;46.50;;;;;;4986122;28;20500;-77
2023/07/04 09:19:06;;;;;;;3.10;1.43;;;26.50;46.10;;;;;;4988787;28;20546;-77
2023/07/04 09:21:36;;;;;;;1.20;1.10;;;26.70;45.90;;;;;;4997179;28;20482;-77
2023/07/04 09:24:06;;;;;;;2.40;1.50;;;26.80;45.60;;;;;;4994617;28;21034;-77
2023/07/04 09:26:40;;;;;;;3.47;1.33;;;27.00;45.40;;;;;;4997394;28;20467;-77
2023/07/04 09:29:08;;;;;;;3.90;1.30;;;27.00;45.10;;;;;;4993628;28;20527;-77
2023/07/04 09:31:38;;;;;;;2.30;1.30;;;27.10;45.00;;;;;;4993324;28;20412;-77
2023/07/04 09:34:08;;;;;;;3.93;1.63;;;27.10;44.80;;;;;;5001231;28;20423;-77
2023/07/04 09:36:38;;;;;;;2.13;1.10;;;27.20;44.80;;;;;;4989993;28;20539;-77
2023/07/04 09:39:08;;;;;;;1.80;1.17;;;27.30;45.40;;;;;;4993695;28;20465;-77
2023/07/04 09:41:39;;;;;;;1.53;1.40;;;27.40;44.60;;;;;;4990528;28;20450;-77
2023/07/04 09:44:27;;;;;;;1.60;1.50;;;27.50;44.60;;;;;;4995951;28;20439;-77
2023/07/04 09:47:01;;;;;;;1.33;1.20;;;27.60;44.50;;;;;;5000009;28;20455;-77
2023/07/04 09:49:30;;;;;;;1.33;1.23;;;27.70;44.30;;;;;;4993089;28;20444;-77
2023/07/04 09:52:01;;;;;;;2.13;1.30;;;27.70;44.20;;;;;;4991212;28;20506;-77
2023/07/04 09:54:30;;;;;;;1.93;1.40;;;27.70;44.10;;;;;;4993314;28;20492;-78
2023/07/04 09:57:00;;;;;;;3.17;1.10;;;27.60;44.10;;;;;;4993065;28;20465;-78
2023/07/04 09:59:28;;;;;;;1.20;1.10;;;27.50;44.20;;;;;;4992481;28;20472;-78
2023/07/04 10:01:59;;;;;;;2.40;1.60;;;27.50;44.40;;;;;;4987623;28;20530;-78
2023/07/04 10:04:31;;;;;;;2.60;1.30;;;27.60;44.60;;;;;;4992138;28;20515;-76
2023/07/04 10:06:59;;;;;;;2.00;1.37;;;27.60;44.40;;;;;;4994304;28;20529;-77
2023/07/04 10:09:29;;;;;;;3.23;1.83;;;27.70;44.40;;;;;;4989063;28;20457;-76
2023/07/04 10:12:10;;;;;;;1.90;1.73;;;27.70;44.20;;;;;;4992760;28;20408;-79
2023/07/04 10:14:43;;;;;;;2.37;1.60;;;27.90;44.40;;;;;;4988926;28;20514;-78
2023/07/04 10:17:15;;;;;;;2.40;1.60;;;28.10;44.10;;;;;;4996425;28;20464;-77
2023/07/04 10:19:45;;;;;;;3.20;1.60;;;28.20;44.00;;;;;;4989884;28;20476;-78
2023/07/04 10:22:13;;;;;;;3.50;1.90;;;28.20;43.70;;;;;;4993052;28;20487;-77
2023/07/04 10:24:42;;;;;;;4.70;1.60;;;28.20;43.70;;;;;;4992180;28;20499;-77
2023/07/04 10:27:12;;;;;;;2.87;1.60;;;28.20;43.70;;;;;;4988085;28;20489;-78
2023/07/04 10:29:41;;;;;;;2.40;1.50;;;28.10;43.80;;;;;;4987445;28;20479;-78
2023/07/04 10:32:13;;;;;;;3.67;2.13;;;28.10;43.80;;;;;;4992180;28;20538;-77
2023/07/04 10:34:42;;;;;;;2.33;1.40;;;28.10;43.60;;;;;;4984915;28;20485;-77
2023/07/04 10:37:18;;;;;;;1.40;1.30;;;28.10;43.60;;;;;;4992829;28;20463;-77
2023/07/04 10:39:46;;;;;;;2.27;1.60;;;28.00;43.60;;;;;;4994015;28;20418;-77
2023/07/04 10:42:16;;;;;;;2.00;1.50;;;28.00;44.30;;;;;;4996580;28;21060;-78
2023/07/04 10:44:46;;;;;;;1.60;1.50;;;28.20;43.60;;;;;;4982005;28;20539;-77
2023/07/04 10:47:25;;;;;;;6.17;1.83;;;28.50;43.70;;;;;;4999178;28;20412;-77
2023/07/04 10:49:55;;;;;;;2.77;1.70;;;28.70;43.40;;;;;;4986158;28;20470;-77
2023/07/04 10:52:26;;;;;;;1.87;1.33;;;28.80;43.10;;;;;;4992084;28;20465;-78
2023/07/04 10:54:55;;;;;;;2.83;1.57;;;29.20;42.90;;;;;;4992043;28;20440;-78
2023/07/04 10:57:26;;;;;;;2.70;1.50;;;29.40;42.60;;;;;;4992023;28;20446;-78
2023/07/04 10:59:56;;;;;;;1.63;1.20;;;29.50;42.10;;;;;;4983053;28;20505;-77
2023/07/04 11:02:29;;;;;;;2.23;1.60;;;29.60;41.80;;;;;;4985384;28;20503;-78
2023/07/04 11:05:00;;;;;;;1.90;1.80;;;29.70;41.50;;;;;;4992331;28;20444;-78
2023/07/04 11:07:29;;;;;;;1.80;1.70;;;29.70;41.60;;;;;;4994026;28;20520;-77
2023/07/04 11:09:58;;;;;;;3.00;1.63;;;29.70;41.70;;;;;;4991403;28;20805;-77
2023/07/04 11:12:28;;;;;;;2.47;1.80;;;29.90;41.60;;;;;;4991919;28;20424;-77
2023/07/04 11:15:01;;;;;;;7.40;1.47;;;30.10;41.90;;;;;;4992143;28;20477;-77
2023/07/04 11:17:29;;;;;;;1.57;1.47;;;30.50;42.00;;;;;;4991144;28;20549;-78
2023/07/04 11:20:10;;;;;;;5.03;2.20;;;30.80;41.60;;;;;;4986915;28;20472;-78
2023/07/04 11:22:47;;;;;;;1.50;1.40;;;31.20;41.50;;;;;;4991403;28;20494;-77
2023/07/04 11:25:53;;;;;;;3.03;1.40;;;32.00;40.80;;;;;;4991896;28;21075;-78
2023/07/04 11:28:27;;;;;;;1.97;1.30;;;33.30;39.00;;;;;;4991714;28;20484;-78
2023/07/04 11:31:08;;;;;;;1.87;1.20;;;34.20;37.80;;;;;;4998275;28;20438;-78
2023/07/04 11:33:38;;;;;;;1.43;1.27;;;35.00;36.90;;;;;;4999571;28;20407;-76
2023/07/04 11:36:07;;;;;;;2.77;1.80;;;35.20;36.60;;;;;;4987866;28;20497;-75
2023/07/04 11:38:36;;;;;;;6.67;1.90;;;35.40;32.00;;;;;;4989130;28;20442;-76
2023/07/04 11:41:04;;;;;;;3.10;1.50;;;35.80;31.00;;;;;;4991327;28;20465;-75
2023/07/04 11:43:35;;;;;;;3.80;1.63;;;36.10;30.30;;;;;;4987210;28;20551;-75
2023/07/04 11:46:03;;;;;;;6.67;1.60;;;36.40;29.60;;;;;;4989948;28;20540;-75
2023/07/04 11:48:31;;;;;;;2.97;1.60;;;36.50;29.50;;;;;;4989856;28;20464;-75
2023/07/04 11:51:04;;;;;;;13.23;2.27;;;36.60;29.30;;;;;;4989124;28;20433;-75
2023/07/04 11:53:38;;;;;;;1.73;1.37;;;36.80;29.10;;;;;;4984500;28;20445;-75
2023/07/04 11:56:15;;;;;;;1.43;1.33;;;36.60;28.50;;;;;;4990883;28;20532;-75
2023/07/04 11:58:45;;;;;;;3.37;1.60;;;35.30;29.30;;;;;;4991292;28;20488;-75
2023/07/04 12:01:14;;;;;;;4.67;1.60;;;34.50;30.30;;;;;;4995042;28;20468;-75
2023/07/04 12:03:59;;;;;;;2.30;1.67;;;33.80;31.60;;;;;;4994591;28;20532;-75
2023/07/04 12:07:01;;;;;;;5.57;1.73;;;33.30;31.60;;;;;;4994589;28;20460;-75
2023/07/04 12:09:39;;;;;;;2.87;1.67;;;33.00;32.50;;;;;;4995706;28;20465;-75
2023/07/04 12:12:09;;;;;;;7.13;1.90;;;32.80;32.60;;;;;;4986670;28;20484;-75
2023/07/04 12:14:39;;;;;;;13.83;2.00;;;32.30;32.90;;;;;;4994044;28;20498;-74
2023/07/04 12:17:07;;;;;;;7.20;2.30;;;31.80;33.80;;;;;;4986129;28;20465;-75
2023/07/04 12:19:36;;;;;;;7.13;2.27;;;31.40;34.70;;;;;;4984075;28;20465;-75
2023/07/04 12:22:04;;;;;;;7.03;2.57;;;31.10;35.50;;;;;;4993944;28;20529;-75
2023/07/04 12:24:33;;;;;;;6.77;2.67;;;30.80;36.10;;;;;;4988836;28;20548;-75
2023/07/04 12:27:01;;;;;;;5.00;2.80;;;30.50;36.70;;;;;;4985801;28;20480;-75
2023/07/04 12:29:29;;;;;;;5.90;2.30;;;30.20;37.20;;;;;;4989503;28;20438;-75
2023/07/04 12:32:07;;;;;;;5.17;2.27;;;30.00;37.60;;;;;;4989964;28;20528;-75
2023/07/04 12:34:38;;;;;;;11.60;2.33;;;29.80;38.00;;;;;;4994061;28;20523;-75
2023/07/04 12:37:16;;;;;;;11.33;2.37;;;29.60;38.40;;;;;;4996743;28;20468;-76
2023/07/04 12:39:45;;;;;;;7.70;2.60;;;29.40;38.90;;;;;;4996176;28;20415;-75
2023/07/04 12:42:18;;;;;;;5.50;2.10;;;29.30;39.00;;;;;;4991724;28;20510;-76
2023/07/04 12:44:45;;;;;;;4.37;2.27;;;29.10;39.60;;;;;;4983978;28;20451;-76
2023/07/04 12:47:22;;;;;;;6.23;2.00;;;29.10;39.90;;;;;;4981621;28;20518;-76
2023/07/04 12:49:54;;;;;;;2.73;2.03;;;29.10;40.30;;;;;;4990575;28;20490;-76
2023/07/04 12:52:28;;;;;;;14.40;2.63;;;29.30;40.40;;;;;;4991609;28;20420;-77
2023/07/04 12:54:56;;;;;;;9.97;2.70;;;29.70;40.80;;;;;;4991901;28;20432;-77
2023/07/04 12:57:25;;;;;;;5.90;1.80;;;29.90;40.70;;;;;;4985563;28;20932;-77